VGEG/CGP METAR and TAF weather

Enter ICAO airport designator
Station Type Date Time Source
VGEG METAR 2021/01/17 14:00 UTC NOAA

VGEG 171400Z 33005KT 3100 HZ NSC 20/14 Q1014 NOSIG


Station Type Date Time Source
VGEG Decoded METAR 2021/01/17 14:00 UTC NOAA

Chittagong Patenga , Bangladesh (VGEG) 22-16N 091-49E 6M
Jan 17, 2021 - 09:00 AM EST / 2021.01.17 1400 UTC
Wind: from the NNW (330 degrees) at 6 MPH (5 KT):0
Visibility: 1 mile(s):0
Weather: haze
Temperature: 68 F (20 C)
Dew Point: 57 F (14 C)
Relative Humidity: 68%
Pressure (altimeter): 29.94 in. Hg (1014 hPa)
ob: VGEG 171400Z 33005KT 3100 HZ NSC 20/14 Q1014 NOSIG
cycle: 14

Station Type Date Time Source
VGEG TAF 2021/01/17 18:39 UTC NOAA

TAF TAF VGEG 171700Z 1718/1824 02006KT 3500 HZ FEW018
TEMPO 1722/1802 00000KT 0800 FG SCT012
BECMG 1803/1805 30008KT 3500 HZ FEW018
BECMG 1820/1822 03006KT 2500 BR SCT015

Example: see airport list